EDT,Max TemperatureF,Mean TemperatureF,Min TemperatureF,Max Dew PointF,MeanDew PointF,Min DewpointF,Max Humidity, Mean Humidity, Min Humidity, Max Sea Level PressureIn, Mean Sea Level PressureIn, Min Sea Level PressureIn, Max VisibilityMiles, Mean VisibilityMiles, Min VisibilityMiles, Max Wind SpeedMPH, Mean Wind SpeedMPH, Max Gust SpeedMPH,PrecipitationIn, CloudCover, Events, WindDirDegrees
2013-5-1,80,68,57,55,54,52,82,58,39,30.19,30.13,30.03,10,10,10,14,5,24,0.00,0,,160
2013-5-2,78,69,60,57,54,50,82,60,39,30.20,30.15,30.09,10,10,10,16,8,23,0.00,1,,145
2013-5-3,75,66,57,57,50,41,77,55,33,30.10,30.03,29.98,10,10,10,20,9,24,0.00,1,,128
2013-5-4,71,64,57,46,41,37,63,46,31,30.06,30.03,29.99,10,10,10,18,11,25,0.00,0,,114
2013-5-5,71,61,51,45,41,36,71,48,32,30.05,30.02,29.99,10,10,10,17,9,23,0.00,0,,97
2013-5-6,75,64,53,46,41,36,62,44,29,30.03,29.99,29.95,10,10,10,13,6,20,0.00,2,,82
2013-5-7,75,62,48,52,47,43,93,56,36,30.04,30.01,29.98,10,10,10,14,5,18,0.00,2,,93
2013-5-8,75,63,51,57,50,46,100,65,36,30.03,30.00,29.96,10,10,7,13,2,25,0.00,2,Rain,21
2013-5-9,78,63,48,57,50,43,100,65,28,29.99,29.95,29.91,10,10,4,14,2,,0.00,2,Rain,217
2013-5-10,66,55,44,61,54,43,100,88,72,29.91,29.82,29.77,10,8,3,18,8,26,0.00,7,Rain,278
2013-5-11,51,45,39,48,41,32,93,83,61,29.96,29.89,29.80,10,9,3,22,4,36,0.00,6,Rain,281
2013-5-12,46,40,33,36,29,27,93,66,46,30.11,30.03,29.95,10,10,10,21,7,28,0.00,3,,304
2013-5-13,55,42,30,34,27,21,100,58,26,30.18,30.13,30.08,10,10,10,15,2,23,0.00,2,,307
2013-5-14,80,63,46,54,42,27,68,46,32,30.08,29.87,29.72,10,10,10,24,7,30,0.00,2,,209
2013-5-15,78,69,59,59,51,46,67,48,32,29.83,29.75,29.64,10,10,10,16,12,25,0.00,0,,276
2013-5-16,82,65,48,52,45,39,93,51,23,29.99,29.91,29.83,10,10,7,9,1,10,0.00,0,,344
2013-5-17,78,66,53,48,43,37,63,44,30,30.11,30.05,29.99,10,10,10,14,8,21,0.00,1,,98
2013-5-18,80,66,53,57,49,39,67,53,39,30.12,30.06,30.00,10,10,10,10,6,18,0.00,3,,125
2013-5-19,84,70,55,61,55,46,72,57,40,30.03,29.95,29.85,10,10,10,12,4,,0.00,1,,148
2013-5-20,86,77,68,70,65,61,88,70,48,29.90,29.85,29.80,10,9,7,26,9,31,0.00,1,Rain,188
2013-5-21,80,71,62,66,64,61,100,75,54,29.84,29.78,29.72,10,10,3,21,9,28,0.00,2,Rain,213
2013-5-22,75,68,60,64,62,59,100,84,61,29.76,29.71,29.66,10,10,4,23,7,33,0.00,4,Rain,206
2013-5-23,60,54,48,59,52,43,100,90,77,30.18,29.90,29.73,10,8,2,17,6,25,0.00,7,Rain,324
2013-5-24,60,48,37,43,37,34,93,65,39,30.36,30.30,30.18,10,10,10,16,8,21,0.00,1,,351
2013-5-25,64,50,37,45,38,34,100,60,32,30.38,30.32,30.26,10,10,10,7,1,,0.00,0,,352
2013-5-26,68,56,44,43,37,34,87,48,30,30.33,30.27,30.19,10,10,10,10,2,,0.00,0,,123
2013-5-27,60,55,50,54,46,30,100,77,31,30.21,30.09,29.94,10,8,2,18,10,28,0.00,7,Rain,123
2013-5-28,78,66,55,70,64,54,100,87,74,29.94,29.87,29.82,10,8,0,23,9,26,0.00,5,Fog-Rain,202
2013-5-29,80,71,62,70,64,61,94,77,61,30.01,29.94,29.85,10,10,10,28,11,44,0.00,2,Rain,222
2013-5-30,84,75,66,70,66,61,88,73,55,30.04,30.00,29.94,10,10,10,20,9,28,0.00,1,Rain,189
2013-5-31,75,70,66,66,65,63,94,82,73,29.98,29.92,29.81,10,10,4,20,12,37,0.00,3,Rain,194